Time,TemperatureF,DewpointF,PressureIn,WindDirection,WindDirectionDegrees,WindSpeedMPH,WindSpeedGustMPH,Humidity,HourlyPrecipIn,Conditions,Clouds,dailyrainin,SoftwareType,DateUTC
2013-02-01 00:03:00,27.7,20.8,30.24,SE,126,0.0,4.0,75,0.00,,,0.00,Weather View 32 v70,2013-02-01 08:03:00,
2013-02-01 00:08:00,27.7,21.1,30.24,SE,126,0.0,3.0,76,0.00,,,0.00,Weather View 32 v70,2013-02-01 08:08:00,
2013-02-01 00:13:00,27.9,21.3,30.24,SE,126,3.0,4.0,76,0.00,,,0.00,Weather View 32 v70,2013-02-01 08:13:00,
2013-02-01 00:18:00,27.9,21.3,30.24,SE,126,0.0,4.0,76,0.00,,,0.00,Weather View 32 v70,2013-02-01 08:18:00,
2013-02-01 00:23:00,27.7,21.1,30.24,SE,126,0.0,4.0,76,0.00,,,0.00,Weather View 32 v70,2013-02-01 08:23:00,
2013-02-01 00:28:00,27.7,21.4,30.24,SE,126,0.0,4.0,77,0.00,,,0.00,Weather View 32 v70,2013-02-01 08:28:00,
2013-02-01 00:30:00,27.7,21.4,30.24,SE,126,0.0,4.0,77,0.00,,,0.00,Weather View 32 v70,2013-02-01 08:30:00,
2013-02-01 00:33:00,27.5,21.2,30.27,SE,126,0.0,4.0,77,0.00,,,0.00,Weather View 32 v70,2013-02-01 08:33:00,
2013-02-01 00:38:00,27.1,21.2,30.27,SE,126,0.0,4.0,78,0.00,,,0.00,Weather View 32 v70,2013-02-01 08:38:00,
2013-02-01 00:43:00,27.1,21.5,30.27,SE,126,0.0,4.0,79,0.00,,,0.00,Weather View 32 v70,2013-02-01 08:43:00,
2013-02-01 00:48:00,27.1,21.5,30.27,SE,126,0.0,4.0,79,0.00,,,0.00,Weather View 32 v70,2013-02-01 08:48:00,
2013-02-01 00:53:00,27.1,21.5,30.27,SE,126,0.0,4.0,79,0.00,,,0.00,Weather View 32 v70,2013-02-01 08:53:00,
2013-02-01 00:58:00,27.1,21.5,30.27,SE,126,0.0,4.0,79,0.00,,,0.00,Weather View 32 v70,2013-02-01 08:58:00,
2013-02-01 01:03:00,27.1,21.5,30.27,SE,126,0.0,4.0,79,0.00,,,0.00,Weather View 32 v70,2013-02-01 09:03:00,
2013-02-01 01:08:00,27.0,21.0,30.27,SE,126,0.0,4.0,78,0.00,,,0.00,Weather View 32 v70,2013-02-01 09:08:00,
2013-02-01 01:13:00,26.8,20.8,30.27,SE,126,0.0,4.0,78,0.00,,,0.00,Weather View 32 v70,2013-02-01 09:13:00,
2013-02-01 01:18:00,26.6,20.7,30.27,SE,126,0.0,3.0,78,0.00,,,0.00,Weather View 32 v70,2013-02-01 09:18:00,
2013-02-01 01:23:00,26.4,20.5,30.27,SE,126,0.0,3.0,78,0.00,,,0.00,Weather View 32 v70,2013-02-01 09:23:00,
2013-02-01 01:28:00,26.4,20.5,30.27,SE,126,3.0,4.0,78,0.00,,,0.00,Weather View 32 v70,2013-02-01 09:28:00,
2013-02-01 01:30:00,26.4,20.8,30.27,SE,126,2.0,4.0,79,0.00,,,0.00,Weather View 32 v70,2013-02-01 09:30:00,
2013-02-01 01:33:00,26.2,20.6,30.27,SE,126,3.0,4.0,79,0.00,,,0.00,Weather View 32 v70,2013-02-01 09:33:00,
2013-02-01 01:39:00,26.4,20.8,30.27,SE,126,0.0,4.0,79,0.00,,,0.00,Weather View 32 v70,2013-02-01 09:39:00,
2013-02-01 01:44:00,26.2,20.6,30.27,SE,126,0.0,4.0,79,0.00,,,0.00,Weather View 32 v70,2013-02-01 09:44:00,
2013-02-01 01:49:00,26.2,20.6,30.27,SE,126,0.0,4.0,79,0.00,,,0.00,Weather View 32 v70,2013-02-01 09:49:00,
2013-02-01 01:54:00,26.4,20.8,30.27,SE,126,0.0,4.0,79,0.00,,,0.00,Weather View 32 v70,2013-02-01 09:54:00,
2013-02-01 01:59:00,26.2,20.6,30.27,SE,126,2.0,4.0,79,0.00,,,0.00,Weather View 32 v70,2013-02-01 09:59:00,
2013-02-01 02:04:00,26.2,20.6,30.27,SE,126,4.0,4.0,79,0.00,,,0.00,Weather View 32 v70,2013-02-01 10:04:00,
2013-02-01 02:09:00,26.4,20.8,30.27,SE,126,4.0,4.0,79,0.00,,,0.00,Weather View 32 v70,2013-02-01 10:09:00,
2013-02-01 02:14:00,26.8,21.1,30.27,SE,126,3.0,5.0,79,0.00,,,0.00,Weather View 32 v70,2013-02-01 10:14:00,
2013-02-01 02:19:00,27.0,21.3,30.27,SE,126,5.0,5.0,79,0.00,,,0.00,Weather View 32 v70,2013-02-01 10:19:00,
2013-02-01 02:24:00,27.5,22.1,30.27,SE,126,3.0,6.0,80,0.00,,,0.00,Weather View 32 v70,2013-02-01 10:24:00,
2013-02-01 02:29:00,27.9,22.5,30.27,WNW,296,4.0,6.0,80,0.00,,,0.00,Weather View 32 v70,2013-02-01 10:29:00,
2013-02-01 02:30:00,28.0,22.7,30.27,WNW,298,3.0,6.0,80,0.00,,,0.00,Weather View 32 v70,2013-02-01 10:30:00,
2013-02-01 02:34:00,28.0,22.7,30.27,WNW,298,3.0,6.0,80,0.00,,,0.00,Weather View 32 v70,2013-02-01 10:34:00,
2013-02-01 02:39:00,28.8,23.4,30.27,West,263,4.0,6.0,80,0.00,,,0.00,Weather View 32 v70,2013-02-01 10:39:00,
2013-02-01 02:44:00,29.3,23.9,30.27,WNW,292,4.0,6.0,80,0.00,,,0.00,Weather View 32 v70,2013-02-01 10:44:00,
2013-02-01 02:49:00,29.7,24.2,30.24,WNW,301,4.0,6.0,80,0.00,,,0.00,Weather View 32 v70,2013-02-01 10:49:00,
2013-02-01 02:54:00,29.8,24.4,30.24,WNW,301,3.0,6.0,80,0.00,,,0.00,Weather View 32 v70,2013-02-01 10:54:00,
2013-02-01 02:59:00,30.2,24.8,30.24,WNW,300,3.0,6.0,80,0.00,,,0.00,Weather View 32 v70,2013-02-01 10:59:00,
2013-02-01 03:04:00,30.2,24.8,30.24,WNW,295,3.0,6.0,80,0.00,,,0.00,Weather View 32 v70,2013-02-01 11:04:00,
2013-02-01 03:09:00,30.6,24.8,30.24,WNW,295,2.0,6.0,79,0.00,,,0.00,Weather View 32 v70,2013-02-01 11:09:00,
2013-02-01 03:14:00,30.6,24.5,30.24,WNW,292,4.0,6.0,78,0.00,,,0.00,Weather View 32 v70,2013-02-01 11:14:00,
2013-02-01 03:19:00,30.6,24.5,30.24,WNW,285,3.0,6.0,78,0.00,,,0.00,Weather View 32 v70,2013-02-01 11:19:00,
2013-02-01 03:24:00,30.6,24.5,30.24,WNW,293,4.0,6.0,78,0.00,,,0.00,Weather View 32 v70,2013-02-01 11:24:00,
2013-02-01 03:29:00,30.7,24.7,30.24,WNW,283,4.0,6.0,78,0.00,,,0.00,Weather View 32 v70,2013-02-01 11:29:00,
2013-02-01 03:34:00,30.9,24.6,30.24,WNW,287,4.0,8.0,77,0.00,,,0.00,Weather View 32 v70,2013-02-01 11:34:00,
2013-02-01 03:39:00,30.7,23.8,30.24,West,275,3.0,8.0,75,0.00,,,0.00,Weather View 32 v70,2013-02-01 11:39:00,
2013-02-01 03:44:00,30.7,23.8,30.24,WSW,254,3.0,8.0,75,0.00,,,0.00,Weather View 32 v70,2013-02-01 11:44:00,
2013-02-01 03:49:00,30.7,23.4,30.24,WSW,254,2.0,8.0,74,0.00,,,0.00,Weather View 32 v70,2013-02-01 11:49:00,
2013-02-01 03:54:00,30.7,23.4,30.24,WSW,254,2.0,8.0,74,0.00,,,0.00,Weather View 32 v70,2013-02-01 11:54:00,
2013-02-01 04:00:00,30.6,23.3,30.24,WSW,254,3.0,8.0,74,0.00,,,0.00,Weather View 32 v70,2013-02-01 12:00:00,
2013-02-01 04:05:00,30.7,23.1,30.24,SW,232,2.0,8.0,73,0.00,,,0.00,Weather View 32 v70,2013-02-01 12:05:00,
2013-02-01 04:10:00,30.2,22.6,30.24,West,281,3.0,8.0,73,0.00,,,0.00,Weather View 32 v70,2013-02-01 12:10:00,
2013-02-01 04:15:00,30.2,22.9,30.24,West,267,3.0,8.0,74,0.00,,,0.00,Weather View 32 v70,2013-02-01 12:15:00,
2013-02-01 04:20:00,30.2,22.9,30.24,West,269,5.0,8.0,74,0.00,,,0.00,Weather View 32 v70,2013-02-01 12:20:00,
2013-02-01 04:25:00,30.2,22.9,30.24,West,271,3.0,8.0,74,0.00,,,0.00,Weather View 32 v70,2013-02-01 12:25:00,
2013-02-01 04:30:00,30.2,22.9,30.24,West,278,2.0,8.0,74,0.00,,,0.00,Weather View 32 v70,2013-02-01 12:30:00,
2013-02-01 04:35:00,30.4,22.8,30.24,WSW,244,4.0,8.0,73,0.00,,,0.00,Weather View 32 v70,2013-02-01 12:35:00,
2013-02-01 04:40:00,30.2,22.3,30.24,WSW,239,5.0,8.0,72,0.00,,,0.00,Weather View 32 v70,2013-02-01 12:40:00,
2013-02-01 04:45:00,30.0,22.1,30.24,WSW,256,3.0,8.0,72,0.00,,,0.00,Weather View 32 v70,2013-02-01 12:45:00,
2013-02-01 04:50:00,30.0,22.4,30.24,WSW,257,5.0,8.0,73,0.00,,,0.00,Weather View 32 v70,2013-02-01 12:50:00,
2013-02-01 04:55:00,29.8,22.6,30.24,WSW,245,4.0,8.0,74,0.00,,,0.00,Weather View 32 v70,2013-02-01 12:55:00,
2013-02-01 05:02:00,30.0,22.7,30.24,WSW,256,3.0,8.0,74,0.00,,,0.00,Weather View 32 v70,2013-02-01 13:02:00,
2013-02-01 05:07:00,30.2,23.2,30.21,WSW,254,3.0,8.0,75,0.00,,,0.00,Weather View 32 v70,2013-02-01 13:07:00,
2013-02-01 05:12:00,30.4,23.1,30.21,WSW,254,3.0,8.0,74,0.00,,,0.00,Weather View 32 v70,2013-02-01 13:12:00,
2013-02-01 05:17:00,30.0,22.1,30.24,SW,236,5.0,8.0,72,0.00,,,0.00,Weather View 32 v70,2013-02-01 13:17:00,
2013-02-01 05:22:00,29.7,22.1,30.24,SW,236,3.0,6.0,73,0.00,,,0.00,Weather View 32 v70,2013-02-01 13:22:00,
2013-02-01 05:27:00,29.5,22.2,30.24,SW,226,4.0,6.0,74,0.00,,,0.00,Weather View 32 v70,2013-02-01 13:27:00,
2013-02-01 05:32:00,29.1,21.9,30.24,SW,226,4.0,6.0,74,0.00,,,0.00,Weather View 32 v70,2013-02-01 13:32:00,
2013-02-01 05:37:00,28.8,21.5,30.24,SW,235,4.0,6.0,74,0.00,,,0.00,Weather View 32 v70,2013-02-01 13:37:00,
2013-02-01 05:42:00,28.2,21.3,30.24,SW,226,3.0,6.0,75,0.00,,,0.00,Weather View 32 v70,2013-02-01 13:42:00,
2013-02-01 05:48:00,28.0,21.5,30.24,WSW,240,4.0,6.0,76,0.00,,,0.00,Weather View 32 v70,2013-02-01 13:48:00,
2013-02-01 05:53:00,28.0,21.8,30.24,SW,226,4.0,6.0,77,0.00,,,0.00,Weather View 32 v70,2013-02-01 13:53:00,
2013-02-01 05:58:00,28.0,22.1,30.24,SW,226,3.0,7.0,78,0.00,,,0.00,Weather View 32 v70,2013-02-01 13:58:00,
2013-02-01 06:03:00,28.0,22.1,30.24,WSW,256,3.0,7.0,78,0.00,,,0.00,Weather View 32 v70,2013-02-01 14:03:00,
2013-02-01 06:08:00,28.0,22.1,30.24,WSW,246,4.0,7.0,78,0.00,,,0.00,Weather View 32 v70,2013-02-01 14:08:00,
2013-02-01 06:13:00,27.9,22.2,30.24,SW,236,4.0,7.0,79,0.00,,,0.00,Weather View 32 v70,2013-02-01 14:13:00,
2013-02-01 06:18:00,27.9,21.9,30.24,SW,229,5.0,7.0,78,0.00,,,0.00,Weather View 32 v70,2013-02-01 14:18:00,
2013-02-01 06:23:00,27.7,21.7,30.24,West,260,4.0,7.0,78,0.00,,,0.00,Weather View 32 v70,2013-02-01 14:23:00,
2013-02-01 06:28:00,27.5,21.5,30.24,WSW,258,4.0,7.0,78,0.00,,,0.00,Weather View 32 v70,2013-02-01 14:28:00,
2013-02-01 06:33:00,27.3,21.4,30.24,West,261,3.0,7.0,78,0.00,,,0.00,Weather View 32 v70,2013-02-01 14:33:00,
2013-02-01 06:38:00,27.3,21.4,30.24,West,259,4.0,7.0,78,0.00,,,0.00,Weather View 32 v70,2013-02-01 14:38:00,
2013-02-01 06:43:00,27.0,21.0,30.24,West,279,3.0,7.0,78,0.00,,,0.00,Weather View 32 v70,2013-02-01 14:43:00,
2013-02-01 06:48:00,27.0,21.0,30.24,West,272,3.0,7.0,78,0.00,,,0.00,Weather View 32 v70,2013-02-01 14:48:00,
2013-02-01 06:53:00,26.8,20.8,30.24,West,276,3.0,7.0,78,0.00,,,0.00,Weather View 32 v70,2013-02-01 14:53:00,
2013-02-01 06:58:00,26.8,20.8,30.24,West,276,3.0,6.0,78,0.00,,,0.00,Weather View 32 v70,2013-02-01 14:58:00,
2013-02-01 07:03:00,26.6,20.7,30.24,West,268,0.0,6.0,78,0.00,,,0.00,Weather View 32 v70,2013-02-01 15:03:00,
2013-02-01 07:08:00,26.6,20.7,30.24,West,268,3.0,6.0,78,0.00,,,0.00,Weather View 32 v70,2013-02-01 15:08:00,
2013-02-01 07:13:00,26.8,21.4,30.24,WSW,237,3.0,6.0,80,0.00,,,0.00,Weather View 32 v70,2013-02-01 15:13:00,
2013-02-01 07:18:00,26.8,22.0,30.24,WSW,237,3.0,6.0,82,0.00,,,0.00,Weather View 32 v70,2013-02-01 15:18:00,
2013-02-01 07:23:00,26.8,22.0,30.24,WSW,251,4.0,6.0,82,0.00,,,0.00,Weather View 32 v70,2013-02-01 15:23:00,
2013-02-01 07:28:00,26.8,21.7,30.24,WSW,258,3.0,5.0,81,0.00,,,0.00,Weather View 32 v70,2013-02-01 15:28:00,
2013-02-01 07:33:00,26.6,21.6,30.24,WSW,257,3.0,5.0,81,0.00,,,0.00,Weather View 32 v70,2013-02-01 15:33:00,
2013-02-01 07:38:00,26.6,21.6,30.24,West,259,2.0,5.0,81,0.00,,,0.00,Weather View 32 v70,2013-02-01 15:38:00,
2013-02-01 07:43:00,26.6,21.6,30.24,West,260,3.0,4.0,81,0.00,,,0.00,Weather View 32 v70,2013-02-01 15:43:00,
2013-02-01 07:48:00,26.8,22.0,30.24,WSW,244,3.0,4.0,82,0.00,,,0.00,Weather View 32 v70,2013-02-01 15:48:00,
2013-02-01 07:53:00,27.1,22.4,30.24,West,268,3.0,5.0,82,0.00,,,0.00,Weather View 32 v70,2013-02-01 15:53:00,
2013-02-01 07:58:00,27.3,22.6,30.24,West,268,0.0,5.0,82,0.00,,,0.00,Weather View 32 v70,2013-02-01 15:58:00,
2013-02-01 08:03:00,27.5,22.7,30.24,West,268,4.0,5.0,82,0.00,,,0.00,Weather View 32 v70,2013-02-01 16:03:00,
2013-02-01 08:08:00,28.0,23.5,30.24,West,267,3.0,5.0,83,0.00,,,0.00,Weather View 32 v70,2013-02-01 16:08:00,
2013-02-01 08:13:00,29.3,24.8,30.24,West,268,2.0,5.0,83,0.00,,,0.00,Weather View 32 v70,2013-02-01 16:13:00,
2013-02-01 08:18:00,30.2,25.7,30.24,West,268,0.0,5.0,83,0.00,,,0.00,Weather View 32 v70,2013-02-01 16:18:00,
2013-02-01 08:23:00,30.9,25.8,30.24,West,268,0.0,5.0,81,0.00,,,0.00,Weather View 32 v70,2013-02-01 16:23:00,
2013-02-01 08:28:00,31.6,25.9,30.24,WNW,302,3.0,5.0,79,0.00,,,0.00,Weather View 32 v70,2013-02-01 16:28:00,
2013-02-01 08:33:00,32.9,26.8,30.27,WNW,300,3.0,5.0,78,0.00,,,0.00,Weather View 32 v70,2013-02-01 16:33:00,
2013-02-01 08:38:00,33.4,26.4,30.27,WNW,293,4.0,5.0,75,0.00,,,0.00,Weather View 32 v70,2013-02-01 16:38:00,
2013-02-01 08:43:00,33.8,23.6,30.27,SW,236,3.0,5.0,66,0.00,,,0.00,Weather View 32 v70,2013-02-01 16:43:00,
2013-02-01 08:49:00,34.2,22.9,30.27,West,276,5.0,6.0,63,0.00,,,0.00,Weather View 32 v70,2013-02-01 16:49:00,
2013-02-01 08:54:00,34.7,21.8,30.27,WNW,285,3.0,8.0,59,0.00,,,0.00,Weather View 32 v70,2013-02-01 16:54:00,
2013-02-01 08:59:00,35.4,22.5,30.27,WNW,303,5.0,8.0,59,0.00,,,0.00,Weather View 32 v70,2013-02-01 16:59:00,
2013-02-01 09:04:00,36.1,21.9,30.27,West,278,4.0,9.0,56,0.00,,,0.00,Weather View 32 v70,2013-02-01 17:04:00,
2013-02-01 09:09:00,37.0,21.9,30.27,WNW,295,5.0,9.0,54,0.00,,,0.00,Weather View 32 v70,2013-02-01 17:09:00,
2013-02-01 09:14:00,37.4,21.4,30.27,WNW,287,4.0,9.0,52,0.00,,,0.00,Weather View 32 v70,2013-02-01 17:14:00,
2013-02-01 09:19:00,37.6,21.1,30.27,NW,305,3.0,9.0,51,0.00,,,0.00,Weather View 32 v70,2013-02-01 17:19:00,
2013-02-01 09:24:00,37.9,20.9,30.27,WSW,249,3.0,9.0,50,0.00,,,0.00,Weather View 32 v70,2013-02-01 17:24:00,
2013-02-01 09:29:00,38.7,21.6,30.27,West,263,4.0,9.0,50,0.00,,,0.00,Weather View 32 v70,2013-02-01 17:29:00,
2013-02-01 09:34:00,39.4,21.8,30.27,NW,305,6.0,9.0,49,0.00,,,0.00,Weather View 32 v70,2013-02-01 17:34:00,
2013-02-01 09:39:00,39.2,21.6,30.27,WNW,286,5.0,9.0,49,0.00,,,0.00,Weather View 32 v70,2013-02-01 17:39:00,
2013-02-01 09:44:00,39.0,22.4,30.27,WNW,283,3.0,9.0,51,0.00,,,0.00,Weather View 32 v70,2013-02-01 17:44:00,
2013-02-01 09:49:00,39.2,22.1,30.27,West,261,3.0,9.0,50,0.00,,,0.00,Weather View 32 v70,2013-02-01 17:49:00,
2013-02-01 09:54:00,39.9,22.8,30.27,WNW,297,4.0,9.0,50,0.00,,,0.00,Weather View 32 v70,2013-02-01 17:54:00,
2013-02-01 09:59:00,40.3,23.1,30.27,WNW,297,4.0,9.0,50,0.00,,,0.00,Weather View 32 v70,2013-02-01 17:59:00,
2013-02-01 10:04:00,40.6,22.9,30.27,WSW,256,4.0,9.0,49,0.00,,,0.00,Weather View 32 v70,2013-02-01 18:04:00,
2013-02-01 10:09:00,41.2,23.4,30.27,West,272,5.0,9.0,49,0.00,,,0.00,Weather View 32 v70,2013-02-01 18:09:00,
2013-02-01 10:14:00,42.8,23.4,30.27,SW,229,2.0,9.0,46,0.00,,,0.00,Weather View 32 v70,2013-02-01 18:14:00,
2013-02-01 10:19:00,42.8,22.9,30.27,SW,226,4.0,9.0,45,0.00,,,0.00,Weather View 32 v70,2013-02-01 18:19:00,
2013-02-01 10:24:00,43.3,23.9,30.27,SW,230,4.0,9.0,46,0.00,,,0.00,Weather View 32 v70,2013-02-01 18:24:00,
2013-02-01 10:29:00,42.6,23.3,30.27,West,259,4.0,9.0,46,0.00,,,0.00,Weather View 32 v70,2013-02-01 18:29:00,
2013-02-01 10:34:00,42.3,22.9,30.27,SW,226,6.0,8.0,46,0.00,,,0.00,Weather View 32 v70,2013-02-01 18:34:00,
2013-02-01 10:39:00,42.1,23.3,30.27,SW,226,6.0,8.0,47,0.00,,,0.00,Weather View 32 v70,2013-02-01 18:39:00,
2013-02-01 10:44:00,41.7,22.4,30.27,SW,226,6.0,8.0,46,0.00,,,0.00,Weather View 32 v70,2013-02-01 18:44:00,
2013-02-01 10:49:00,42.1,22.8,30.27,SW,226,6.0,8.0,46,0.00,,,0.00,Weather View 32 v70,2013-02-01 18:49:00,
2013-02-01 10:54:00,42.3,22.9,30.27,SW,226,3.0,8.0,46,0.00,,,0.00,Weather View 32 v70,2013-02-01 18:54:00,
2013-02-01 10:59:00,42.6,23.3,30.27,SW,231,4.0,8.0,46,0.00,,,0.00,Weather View 32 v70,2013-02-01 18:59:00,
2013-02-01 11:04:00,43.0,23.1,30.27,WSW,256,5.0,8.0,45,0.00,,,0.00,Weather View 32 v70,2013-02-01 19:04:00,
2013-02-01 11:09:00,43.3,23.4,30.27,WSW,254,4.0,8.0,45,0.00,,,0.00,Weather View 32 v70,2013-02-01 19:09:00,
2013-02-01 11:14:00,43.5,23.0,30.27,SW,226,4.0,8.0,44,0.00,,,0.00,Weather View 32 v70,2013-02-01 19:14:00,
2013-02-01 11:19:00,43.5,23.6,30.27,SW,226,5.0,8.0,45,0.00,,,0.00,Weather View 32 v70,2013-02-01 19:19:00,
2013-02-01 11:24:00,43.7,23.7,30.27,WSW,256,5.0,8.0,45,0.00,,,0.00,Weather View 32 v70,2013-02-01 19:24:00,
2013-02-01 11:29:00,44.1,23.5,30.27,SW,234,6.0,8.0,44,0.00,,,0.00,Weather View 32 v70,2013-02-01 19:29:00,
2013-02-01 11:34:00,44.6,24.0,30.27,SW,227,3.0,8.0,44,0.00,,,0.00,Weather View 32 v70,2013-02-01 19:34:00,
2013-02-01 11:39:00,45.1,23.9,30.27,West,268,0.0,8.0,43,0.00,,,0.00,Weather View 32 v70,2013-02-01 19:39:00,
2013-02-01 11:44:00,45.5,24.3,30.27,SW,226,4.0,8.0,43,0.00,,,0.00,Weather View 32 v70,2013-02-01 19:44:00,
2013-02-01 11:49:00,45.5,23.7,30.27,SW,226,4.0,8.0,42,0.00,,,0.00,Weather View 32 v70,2013-02-01 19:49:00,
2013-02-01 11:54:00,45.3,24.1,30.27,SW,228,4.0,7.0,43,0.00,,,0.00,Weather View 32 v70,2013-02-01 19:54:00,
2013-02-01 11:59:00,45.7,23.9,30.27,SW,226,0.0,7.0,42,0.00,,,0.00,Weather View 32 v70,2013-02-01 19:59:00,
2013-02-01 12:04:00,46.0,24.8,30.27,SW,226,6.0,7.0,43,0.00,,,0.00,Weather View 32 v70,2013-02-01 20:04:00,
2013-02-01 12:09:00,46.2,24.4,30.27,WSW,253,3.0,7.0,42,0.00,,,0.00,Weather View 32 v70,2013-02-01 20:09:00,
2013-02-01 12:14:00,46.8,24.3,30.27,SW,226,7.0,7.0,41,0.00,,,0.00,Weather View 32 v70,2013-02-01 20:14:00,
2013-02-01 12:20:00,46.9,24.4,30.27,SW,226,4.0,7.0,41,0.00,,,0.00,Weather View 32 v70,2013-02-01 20:20:00,
2013-02-01 12:25:00,47.1,24.6,30.27,SW,226,4.0,7.0,41,0.00,,,0.00,Weather View 32 v70,2013-02-01 20:25:00,
2013-02-01 12:30:00,47.3,24.8,30.27,West,259,5.0,7.0,41,0.00,,,0.00,Weather View 32 v70,2013-02-01 20:30:00,
2013-02-01 12:35:00,47.8,24.6,30.27,SW,226,4.0,7.0,40,0.00,,,0.00,Weather View 32 v70,2013-02-01 20:35:00,
2013-02-01 12:40:00,47.8,24.6,30.27,SW,226,6.0,8.0,40,0.00,,,0.00,Weather View 32 v70,2013-02-01 20:40:00,
2013-02-01 12:45:00,48.0,24.8,30.27,SW,226,4.0,8.0,40,0.00,,,0.00,Weather View 32 v70,2013-02-01 20:45:00,
2013-02-01 12:50:00,48.2,25.0,30.24,SW,226,3.0,8.0,40,0.00,,,0.00,Weather View 32 v70,2013-02-01 20:50:00,
2013-02-01 12:55:00,48.6,25.3,30.24,WSW,251,3.0,8.0,40,0.00,,,0.00,Weather View 32 v70,2013-02-01 20:55:00,
2013-02-01 13:00:00,48.9,25.6,30.24,SW,235,3.0,8.0,40,0.00,,,0.00,Weather View 32 v70,2013-02-01 21:00:00,
2013-02-01 13:05:00,49.1,25.8,30.24,SW,226,3.0,8.0,40,0.00,,,0.00,Weather View 32 v70,2013-02-01 21:05:00,
2013-02-01 13:10:00,49.1,25.8,30.24,WSW,254,4.0,8.0,40,0.00,,,0.00,Weather View 32 v70,2013-02-01 21:10:00,
2013-02-01 13:15:00,49.5,25.5,30.24,West,266,3.0,8.0,39,0.00,,,0.00,Weather View 32 v70,2013-02-01 21:15:00,
2013-02-01 13:20:00,49.8,26.4,30.24,WSW,257,0.0,8.0,40,0.00,,,0.00,Weather View 32 v70,2013-02-01 21:20:00,
2013-02-01 13:25:00,49.8,25.8,30.24,WSW,239,3.0,8.0,39,0.00,,,0.00,Weather View 32 v70,2013-02-01 21:25:00,
2013-02-01 13:30:00,49.8,25.8,30.24,SW,226,3.0,8.0,39,0.00,,,0.00,Weather View 32 v70,2013-02-01 21:30:00,
2013-02-01 13:35:00,49.8,25.8,30.24,SW,227,0.0,8.0,39,0.00,,,0.00,Weather View 32 v70,2013-02-01 21:35:00,
2013-02-01 13:40:00,49.8,25.8,30.24,SW,226,4.0,7.0,39,0.00,,,0.00,Weather View 32 v70,2013-02-01 21:40:00,
2013-02-01 13:45:00,49.6,25.7,30.24,SW,226,2.0,7.0,39,0.00,,,0.00,Weather View 32 v70,2013-02-01 21:45:00,
2013-02-01 13:50:00,49.6,25.7,30.24,SW,226,4.0,8.0,39,0.00,,,0.00,Weather View 32 v70,2013-02-01 21:50:00,
2013-02-01 13:55:00,49.5,25.5,30.24,SW,226,0.0,8.0,39,0.00,,,0.00,Weather View 32 v70,2013-02-01 21:55:00,
2013-02-01 14:00:00,50.0,25.3,30.24,SW,226,5.0,8.0,38,0.00,,,0.00,Weather View 32 v70,2013-02-01 22:00:00,
2013-02-01 14:05:00,50.0,25.3,30.24,SW,226,4.0,8.0,38,0.00,,,0.00,Weather View 32 v70,2013-02-01 22:05:00,
2013-02-01 14:10:00,50.0,25.3,30.24,WSW,238,0.0,8.0,38,0.00,,,0.00,Weather View 32 v70,2013-02-01 22:10:00,
2013-02-01 14:15:00,50.0,25.3,30.24,SW,229,3.0,8.0,38,0.00,,,0.00,Weather View 32 v70,2013-02-01 22:15:00,
2013-02-01 14:20:00,50.2,25.5,30.24,SW,226,2.0,8.0,38,0.00,,,0.00,Weather View 32 v70,2013-02-01 22:20:00,
2013-02-01 14:25:00,49.8,25.2,30.24,SW,225,4.0,8.0,38,0.00,,,0.00,Weather View 32 v70,2013-02-01 22:25:00,
2013-02-01 14:30:00,50.2,24.9,30.24,SW,226,3.0,8.0,37,0.00,,,0.00,Weather View 32 v70,2013-02-01 22:30:00,
2013-02-01 14:35:00,50.4,25.7,30.24,SW,226,4.0,8.0,38,0.00,,,0.00,Weather View 32 v70,2013-02-01 22:35:00,
2013-02-01 14:40:00,50.5,25.8,30.24,SW,226,3.0,8.0,38,0.00,,,0.00,Weather View 32 v70,2013-02-01 22:40:00,
2013-02-01 14:45:00,50.5,25.2,30.24,SW,226,5.0,8.0,37,0.00,,,0.00,Weather View 32 v70,2013-02-01 22:45:00,
2013-02-01 14:50:00,50.4,25.0,30.24,SW,225,3.0,6.0,37,0.00,,,0.00,Weather View 32 v70,2013-02-01 22:50:00,
2013-02-01 14:55:00,50.2,24.9,30.24,SW,225,3.0,6.0,37,0.00,,,0.00,Weather View 32 v70,2013-02-01 22:55:00,
2013-02-01 15:00:00,50.0,24.7,30.24,WSW,237,4.0,6.0,37,0.00,,,0.00,Weather View 32 v70,2013-02-01 23:00:00,
2013-02-01 15:05:00,50.0,24.7,30.24,SW,226,3.0,6.0,37,0.00,,,0.00,Weather View 32 v70,2013-02-01 23:05:00,
2013-02-01 15:10:00,50.0,24.7,30.24,SW,226,3.0,6.0,37,0.00,,,0.00,Weather View 32 v70,2013-02-01 23:10:00,
2013-02-01 15:15:00,50.2,24.9,30.24,SW,225,4.0,6.0,37,0.00,,,0.00,Weather View 32 v70,2013-02-01 23:15:00,
2013-02-01 15:20:00,50.2,24.9,30.24,SW,225,4.0,6.0,37,0.00,,,0.00,Weather View 32 v70,2013-02-01 23:20:00,
2013-02-01 15:25:00,50.0,24.7,30.24,SW,226,3.0,6.0,37,0.00,,,0.00,Weather View 32 v70,2013-02-01 23:25:00,
2013-02-01 15:30:00,50.2,24.9,30.24,SW,226,3.0,6.0,37,0.00,,,0.00,Weather View 32 v70,2013-02-01 23:30:00,
2013-02-01 15:35:00,50.2,24.9,30.24,SW,225,0.0,6.0,37,0.00,,,0.00,Weather View 32 v70,2013-02-01 23:35:00,
2013-02-01 15:40:00,50.2,24.9,30.24,SW,225,4.0,6.0,37,0.00,,,0.00,Weather View 32 v70,2013-02-01 23:40:00,
2013-02-01 15:45:00,50.0,24.7,30.24,SW,225,6.0,6.0,37,0.00,,,0.00,Weather View 32 v70,2013-02-01 23:45:00,
2013-02-01 15:50:00,49.6,25.0,30.24,SW,226,0.0,8.0,38,0.00,,,0.00,Weather View 32 v70,2013-02-01 23:50:00,
2013-02-01 15:56:00,49.5,24.9,30.24,SW,225,3.0,8.0,38,0.00,,,0.00,Weather View 32 v70,2013-02-01 23:56:00,
2013-02-01 16:01:00,49.5,24.9,30.24,SW,225,3.0,8.0,38,0.00,,,0.00,Weather View 32 v70,2013-02-02 00:01:00,
2013-02-01 16:06:00,49.5,24.9,30.24,SW,225,3.0,8.0,38,0.00,,,0.00,Weather View 32 v70,2013-02-02 00:06:00,
2013-02-01 16:11:00,49.5,24.2,30.24,SW,225,5.0,8.0,37,0.00,,,0.00,Weather View 32 v70,2013-02-02 00:11:00,
2013-02-01 16:16:00,49.5,24.2,30.24,SW,226,3.0,8.0,37,0.00,,,0.00,Weather View 32 v70,2013-02-02 00:16:00,
2013-02-01 16:21:00,49.3,24.1,30.24,SW,226,2.0,8.0,37,0.00,,,0.00,Weather View 32 v70,2013-02-02 00:21:00,
2013-02-01 16:26:00,49.1,24.5,30.24,SW,225,4.0,8.0,38,0.00,,,0.00,Weather View 32 v70,2013-02-02 00:26:00,
2013-02-01 16:31:00,49.1,24.5,30.24,SW,226,3.0,8.0,38,0.00,,,0.00,Weather View 32 v70,2013-02-02 00:31:00,
2013-02-01 16:36:00,48.7,24.2,30.24,SW,225,3.0,8.0,38,0.00,,,0.00,Weather View 32 v70,2013-02-02 00:36:00,
2013-02-01 16:41:00,48.6,24.1,30.24,SW,225,3.0,8.0,38,0.00,,,0.00,Weather View 32 v70,2013-02-02 00:41:00,
2013-02-01 16:46:00,48.6,24.1,30.24,SW,225,3.0,8.0,38,0.00,,,0.00,Weather View 32 v70,2013-02-02 00:46:00,
2013-02-01 16:51:00,48.2,23.7,30.24,SW,226,0.0,6.0,38,0.00,,,0.00,Weather View 32 v70,2013-02-02 00:51:00,
2013-02-01 16:56:00,47.7,23.3,30.24,SW,225,0.0,6.0,38,0.00,,,0.00,Weather View 32 v70,2013-02-02 00:56:00,
2013-02-01 17:01:00,47.1,22.8,30.24,SW,225,0.0,6.0,38,0.00,,,0.00,Weather View 32 v70,2013-02-02 01:01:00,
2013-02-01 17:06:00,46.2,22.6,30.24,SW,225,3.0,6.0,39,0.00,,,0.00,Weather View 32 v70,2013-02-02 01:06:00,
2013-02-01 17:11:00,45.9,22.3,30.24,SW,225,3.0,6.0,39,0.00,,,0.00,Weather View 32 v70,2013-02-02 01:11:00,
2013-02-01 17:16:00,44.6,21.1,30.24,SW,225,0.0,6.0,39,0.00,,,0.00,Weather View 32 v70,2013-02-02 01:16:00,
2013-02-01 17:21:00,43.5,20.8,30.24,SW,226,0.0,6.0,40,0.00,,,0.00,Weather View 32 v70,2013-02-02 01:21:00,
2013-02-01 17:26:00,42.4,19.8,30.24,SW,225,0.0,6.0,40,0.00,,,0.00,Weather View 32 v70,2013-02-02 01:26:00,
2013-02-01 17:31:00,41.5,19.0,30.24,SW,225,0.0,6.0,40,0.00,,,0.00,Weather View 32 v70,2013-02-02 01:31:00,
2013-02-01 17:36:00,40.5,19.1,30.24,SW,226,0.0,6.0,42,0.00,,,0.00,Weather View 32 v70,2013-02-02 01:36:00,
2013-02-01 17:41:00,39.6,18.3,30.24,SW,226,0.0,6.0,42,0.00,,,0.00,Weather View 32 v70,2013-02-02 01:41:00,
2013-02-01 17:46:00,38.5,17.9,30.24,SW,225,0.0,4.0,43,0.00,,,0.00,Weather View 32 v70,2013-02-02 01:46:00,
2013-02-01 17:51:00,37.9,17.9,30.24,SW,226,0.0,4.0,44,0.00,,,0.00,Weather View 32 v70,2013-02-02 01:51:00,
2013-02-01 17:56:00,37.2,17.8,30.24,SW,226,0.0,4.0,45,0.00,,,0.00,Weather View 32 v70,2013-02-02 01:56:00,
2013-02-01 18:01:00,36.7,17.3,30.24,SW,225,0.0,4.0,45,0.00,,,0.00,Weather View 32 v70,2013-02-02 02:01:00,
2013-02-01 18:06:00,36.0,17.2,30.24,SW,225,0.0,4.0,46,0.00,,,0.00,Weather View 32 v70,2013-02-02 02:06:00,
2013-02-01 18:11:00,35.6,16.8,30.24,SW,226,0.0,3.0,46,0.00,,,0.00,Weather View 32 v70,2013-02-02 02:11:00,
2013-02-01 18:16:00,34.9,16.7,30.27,SW,226,0.0,0.0,47,0.00,,,0.00,Weather View 32 v70,2013-02-02 02:16:00,
2013-02-01 18:21:00,34.3,17.6,30.27,SW,226,0.0,0.0,50,0.00,,,0.00,Weather View 32 v70,2013-02-02 02:21:00,
2013-02-01 18:26:00,34.0,17.7,30.27,SW,225,0.0,0.0,51,0.00,,,0.00,Weather View 32 v70,2013-02-02 02:26:00,
2013-02-01 18:31:00,33.6,18.3,30.27,SW,225,0.0,0.0,53,0.00,,,0.00,Weather View 32 v70,2013-02-02 02:31:00,
2013-02-01 18:36:00,33.3,18.0,30.27,SW,226,0.0,0.0,53,0.00,,,0.00,Weather View 32 v70,2013-02-02 02:36:00,
2013-02-01 18:41:00,32.9,17.6,30.27,SW,225,0.0,0.0,53,0.00,,,0.00,Weather View 32 v70,2013-02-02 02:41:00,
2013-02-01 18:46:00,32.5,16.9,30.27,SW,225,0.0,0.0,52,0.00,,,0.00,Weather View 32 v70,2013-02-02 02:46:00,
2013-02-01 18:51:00,32.2,16.5,30.27,SW,225,0.0,0.0,52,0.00,,,0.00,Weather View 32 v70,2013-02-02 02:51:00,
2013-02-01 18:56:00,31.8,16.2,30.27,SW,226,0.0,0.0,52,0.00,,,0.00,Weather View 32 v70,2013-02-02 02:56:00,
2013-02-01 19:01:00,31.5,15.8,30.27,SW,226,0.0,0.0,52,0.00,,,0.00,Weather View 32 v70,2013-02-02 03:01:00,
2013-02-01 19:06:00,31.1,16.0,30.27,SW,226,0.0,0.0,53,0.00,,,0.00,Weather View 32 v70,2013-02-02 03:06:00,
2013-02-01 19:11:00,30.9,15.8,30.27,SW,226,0.0,0.0,53,0.00,,,0.00,Weather View 32 v70,2013-02-02 03:11:00,
2013-02-01 19:16:00,30.4,15.3,30.27,SW,226,0.0,0.0,53,0.00,,,0.00,Weather View 32 v70,2013-02-02 03:16:00,
2013-02-01 19:21:00,30.0,15.4,30.27,SW,225,0.0,0.0,54,0.00,,,0.00,Weather View 32 v70,2013-02-02 03:21:00,
2013-02-01 19:26:00,29.7,15.0,30.27,SW,226,0.0,0.0,54,0.00,,,0.00,Weather View 32 v70,2013-02-02 03:26:00,
2013-02-01 19:31:00,29.5,14.9,30.27,SW,225,0.0,0.0,54,0.00,,,0.00,Weather View 32 v70,2013-02-02 03:31:00,
2013-02-01 19:36:00,29.3,15.1,30.27,SW,226,0.0,0.0,55,0.00,,,0.00,Weather View 32 v70,2013-02-02 03:36:00,
2013-02-01 19:41:00,29.1,15.0,30.27,SW,226,0.0,0.0,55,0.00,,,0.00,Weather View 32 v70,2013-02-02 03:41:00,
2013-02-01 19:45:00,28.9,14.8,30.27,SW,226,0.0,0.0,55,0.00,,,0.00,Weather View 32 v70,2013-02-02 03:45:00,
2013-02-01 19:46:00,28.9,15.6,30.27,SW,225,0.0,0.0,57,0.00,,,0.00,Weather View 32 v70,2013-02-02 03:46:00,
2013-02-01 19:51:00,28.6,15.3,30.27,SW,226,0.0,0.0,57,0.00,,,0.00,Weather View 32 v70,2013-02-02 03:51:00,
2013-02-01 19:56:00,28.6,15.3,30.27,SW,226,0.0,0.0,57,0.00,,,0.00,Weather View 32 v70,2013-02-02 03:56:00,
2013-02-01 20:01:00,28.6,15.3,30.27,SW,225,0.0,0.0,57,0.00,,,0.00,Weather View 32 v70,2013-02-02 04:01:00,
2013-02-01 20:06:00,28.4,15.1,30.27,SW,225,0.0,0.0,57,0.00,,,0.00,Weather View 32 v70,2013-02-02 04:06:00,
2013-02-01 20:12:00,28.2,14.9,30.27,SW,226,0.0,0.0,57,0.00,,,0.00,Weather View 32 v70,2013-02-02 04:12:00,
2013-02-01 20:17:00,28.0,15.2,30.30,SW,225,0.0,0.0,58,0.00,,,0.00,Weather View 32 v70,2013-02-02 04:17:00,
2013-02-01 20:22:00,27.9,15.0,30.30,SW,225,0.0,0.0,58,0.00,,,0.00,Weather View 32 v70,2013-02-02 04:22:00,
2013-02-01 20:27:00,27.9,15.8,30.30,SW,226,0.0,0.0,60,0.00,,,0.00,Weather View 32 v70,2013-02-02 04:27:00,
2013-02-01 20:32:00,27.7,15.6,30.30,SW,225,0.0,0.0,60,0.00,,,0.00,Weather View 32 v70,2013-02-02 04:32:00,
2013-02-01 20:37:00,27.7,15.6,30.30,SW,225,0.0,0.0,60,0.00,,,0.00,Weather View 32 v70,2013-02-02 04:37:00,
2013-02-01 20:42:00,27.5,15.8,30.30,SW,225,0.0,0.0,61,0.00,,,0.00,Weather View 32 v70,2013-02-02 04:42:00,
2013-02-01 20:45:00,27.5,15.8,30.30,SW,226,0.0,0.0,61,0.00,,,0.00,Weather View 32 v70,2013-02-02 04:45:00,
2013-02-01 20:47:00,27.3,15.6,30.30,SW,226,0.0,0.0,61,0.00,,,0.00,Weather View 32 v70,2013-02-02 04:47:00,
2013-02-01 20:52:00,27.3,15.6,30.30,SW,226,0.0,0.0,61,0.00,,,0.00,Weather View 32 v70,2013-02-02 04:52:00,
2013-02-01 20:57:00,27.1,15.5,30.30,SW,225,0.0,0.0,61,0.00,,,0.00,Weather View 32 v70,2013-02-02 04:57:00,
2013-02-01 21:00:00,27.1,15.5,30.30,SW,226,0.0,0.0,61,0.00,,,0.00,Weather View 32 v70,2013-02-02 05:00:00,
2013-02-01 21:05:00,27.0,15.3,30.30,SW,226,0.0,0.0,61,0.00,,,0.00,Weather View 32 v70,2013-02-02 05:05:00,
2013-02-01 21:10:00,27.0,15.7,30.30,SW,225,0.0,0.0,62,0.00,,,0.00,Weather View 32 v70,2013-02-02 05:10:00,
2013-02-01 21:15:00,26.8,15.5,30.30,SW,225,0.0,0.0,62,0.00,,,0.00,Weather View 32 v70,2013-02-02 05:15:00,
2013-02-01 21:17:00,26.8,15.5,30.30,SW,226,0.0,0.0,62,0.00,,,0.00,Weather View 32 v70,2013-02-02 05:17:00,
2013-02-01 21:22:00,26.8,15.5,30.30,SW,226,0.0,0.0,62,0.00,,,0.00,Weather View 32 v70,2013-02-02 05:22:00,
2013-02-01 21:27:00,26.6,15.7,30.30,SW,225,0.0,0.0,63,0.00,,,0.00,Weather View 32 v70,2013-02-02 05:27:00,
2013-02-01 21:30:00,26.6,15.7,30.30,SW,226,0.0,0.0,63,0.00,,,0.00,Weather View 32 v70,2013-02-02 05:30:00,
2013-02-01 21:35:00,26.4,15.5,30.30,SW,225,0.0,0.0,63,0.00,,,0.00,Weather View 32 v70,2013-02-02 05:35:00,
2013-02-01 21:40:00,26.2,15.4,30.30,SW,225,0.0,0.0,63,0.00,,,0.00,Weather View 32 v70,2013-02-02 05:40:00,
2013-02-01 21:45:00,26.2,15.7,30.30,SW,226,0.0,0.0,64,0.00,,,0.00,Weather View 32 v70,2013-02-02 05:45:00,
2013-02-01 21:50:00,26.1,15.5,30.30,SW,226,0.0,0.0,64,0.00,,,0.00,Weather View 32 v70,2013-02-02 05:50:00,
2013-02-01 21:55:00,26.1,15.9,30.30,SW,226,0.0,0.0,65,0.00,,,0.00,Weather View 32 v70,2013-02-02 05:55:00,
2013-02-01 22:00:00,25.9,16.4,30.30,SW,226,0.0,0.0,67,0.00,,,0.00,Weather View 32 v70,2013-02-02 06:00:00,
2013-02-01 22:05:00,25.9,16.1,30.30,SW,226,0.0,0.0,66,0.00,,,0.00,Weather View 32 v70,2013-02-02 06:05:00,
2013-02-01 22:10:00,25.7,15.9,30.30,SW,226,0.0,0.0,66,0.00,,,0.00,Weather View 32 v70,2013-02-02 06:10:00,
2013-02-01 22:15:00,25.7,15.9,30.30,SW,226,0.0,0.0,66,0.00,,,0.00,Weather View 32 v70,2013-02-02 06:15:00,
2013-02-01 22:20:00,25.5,15.7,30.30,SW,226,0.0,0.0,66,0.00,,,0.00,Weather View 32 v70,2013-02-02 06:20:00,
2013-02-01 22:25:00,25.5,16.1,30.30,SW,226,0.0,0.0,67,0.00,,,0.00,Weather View 32 v70,2013-02-02 06:25:00,
2013-02-01 22:30:00,25.3,15.9,30.30,SW,226,0.0,0.0,67,0.00,,,0.00,Weather View 32 v70,2013-02-02 06:30:00,
2013-02-01 22:35:00,25.3,15.9,30.30,SW,226,0.0,0.0,67,0.00,,,0.00,Weather View 32 v70,2013-02-02 06:35:00,
2013-02-01 22:40:00,25.3,15.9,30.30,SW,225,0.0,0.0,67,0.00,,,0.00,Weather View 32 v70,2013-02-02 06:40:00,
2013-02-01 22:45:00,25.3,16.3,30.30,SW,226,0.0,0.0,68,0.00,,,0.00,Weather View 32 v70,2013-02-02 06:45:00,
2013-02-01 22:50:00,25.2,16.1,30.30,SW,226,0.0,0.0,68,0.00,,,0.00,Weather View 32 v70,2013-02-02 06:50:00,
2013-02-01 22:55:00,25.0,15.9,30.30,SW,226,0.0,0.0,68,0.00,,,0.00,Weather View 32 v70,2013-02-02 06:55:00,
2013-02-01 23:00:00,25.0,15.9,30.30,SW,226,0.0,0.0,68,0.00,,,0.00,Weather View 32 v70,2013-02-02 07:00:00,
2013-02-01 23:05:00,24.8,16.1,30.33,SW,225,0.0,0.0,69,0.00,,,0.00,Weather View 32 v70,2013-02-02 07:05:00,
2013-02-01 23:10:00,24.8,16.1,30.33,SW,225,0.0,0.0,69,0.00,,,0.00,Weather View 32 v70,2013-02-02 07:10:00,
2013-02-01 23:15:00,24.6,15.9,30.33,SW,226,0.0,0.0,69,0.00,,,0.00,Weather View 32 v70,2013-02-02 07:15:00,
2013-02-01 23:20:00,24.6,15.9,30.33,SW,226,0.0,0.0,69,0.00,,,0.00,Weather View 32 v70,2013-02-02 07:20:00,
2013-02-01 23:25:00,24.4,15.7,30.33,SW,226,0.0,0.0,69,0.00,,,0.00,Weather View 32 v70,2013-02-02 07:25:00,
2013-02-01 23:30:00,24.4,15.7,30.33,SW,225,0.0,0.0,69,0.00,,,0.00,Weather View 32 v70,2013-02-02 07:30:00,
2013-02-01 23:35:00,24.4,16.1,30.33,SW,225,0.0,0.0,70,0.00,,,0.00,Weather View 32 v70,2013-02-02 07:35:00,
2013-02-01 23:40:00,24.3,15.9,30.33,SW,226,0.0,0.0,70,0.00,,,0.00,Weather View 32 v70,2013-02-02 07:40:00,
2013-02-01 23:45:00,24.3,16.2,30.33,SW,226,0.0,0.0,71,0.00,,,0.00,Weather View 32 v70,2013-02-02 07:45:00,
2013-02-01 23:50:00,24.3,16.2,30.33,SW,226,0.0,0.0,71,0.00,,,0.00,Weather View 32 v70,2013-02-02 07:50:00,
2013-02-01 23:55:00,24.3,16.2,30.33,SW,226,0.0,0.0,71,0.00,,,0.00,Weather View 32 v70,2013-02-02 07:55:00,